Flight Track Log - Related Links

Times and Time Zones

All times are in EDT time to prevent confusion due to time zone crossing. See the EGF3985 flight status page for this flight to view local times or setup timezone preferences in your user account.

Time Position Orientation Groundspeed Altitude Reporting Facility
EDT Latitude Longitude Course Direction KTS MPH feet Rate Location/Type
Tue 04:21:05 PM 40.6378 -73.8614 237° Southwest 201 231 1,900  Level New York Center
Tue 04:21:40 PM 40.6167 -73.9000 234° Southwest 232 267 3,600 2,494 Climbing New York TRACON
Tue 04:22:00 PM 40.4428 -74.0859 229° Southwest  Level FlightAware Approximate
Tue 04:22:34 PM 40.5667 -73.9333 207° Southwest 263 303 5,600  Level New York TRACON
Tue 04:23:00 PM 40.3740 -74.1890 229° Southwest  Level FlightAware Approximate
Tue 04:23:40 PM 40.4833 -74.0000 211° Southwest 282 325 8,200  Level New York TRACON
Tue 04:24:00 PM 40.3090 -74.2962 232° Southwest  Level FlightAware Approximate
Tue 04:24:40 PM 40.4167 -74.0500 210° Southwest 288 331 10,700  Level New York TRACON
Tue 04:25:00 PM 40.2486 -74.4024 232° Southwest  Level FlightAware Approximate
Tue 04:26:00 PM 40.1998 -74.5170 237° Southwest  Level FlightAware Approximate
Tue 04:27:05 PM 40.3050 -74.2844 238° Southwest 337 388 13,600  Level New York Center
Tue 04:28:04 PM 40.2517 -74.3989 239° Southwest 365 420 14,900 1,109 Climbing New York Center
Tue 04:29:04 PM 40.2094 -74.4864 238° Southwest 370 426 15,800 1,091 Climbing New York Center
Tue 04:30:05 PM 40.1900 -74.6319 260° West 356 410 17,100 1,059 Climbing New York Center
Tue 04:31:03 PM 40.1836 -74.7619 266° West 366 421 17,900 1,017 Climbing New York Center
Tue 04:32:03 PM 40.1725 -74.9000 264° West 382 440 19,100 1,190 Climbing New York Center
Tue 04:33:04 PM 40.1614 -75.0378 264° West 382 440 20,300 1,190 Climbing New York Center
Tue 04:34:04 PM 40.1500 -75.1783 264° West 382 440 21,500 843 Climbing New York Center
Tue 04:35:05 PM 40.1383 -75.3186 264° West 387 445 22,000 248 Climbing New York Center
Tue 04:36:05 PM 40.1256 -75.4864 264° West 408 470 22,000 -51 Level New York Center
Tue 04:37:03 PM 40.1111 -75.6372 263° West 422 486 21,900  Descending New York Center
Tue 04:38:03 PM 40.0697 -75.7808 249° West 422 486 22,000 50 Climbing New York Center
Tue 04:39:04 PM 40.0261 -75.9214 248° West 422 486 22,000  Level New York Center
Tue 04:40:04 PM 39.9781 -76.0642 246° West 427 491 22,000  Level New York Center
Tue 04:41:02 PM 39.9319 -76.2069 247° West 427 491 22,000  Level New York Center
Tue 04:42:03 PM 39.8864 -76.3361 245° Southwest 432 497 22,000  Level New York Center
Tue 04:43:04 PM 39.8397 -76.4811 247° West 432 497 22,000  Level New York Center
Tue 04:44:03 PM 39.7953 -76.6233 248° West 432 497 22,000  Level New York Center
Tue 04:44:58 PM 39.7453 -76.7708 246° West 432 497 22,000  Level Washington Center
Tue 04:45:58 PM 39.6981 -76.9103 246° West 437 503 22,000  Level Washington Center
Tue 04:46:58 PM 39.6506 -77.0522 247° West 437 503 22,000  Level Washington Center
Tue 04:47:58 PM 39.6050 -77.1942 247° West 437 503 22,000  Level Washington Center
Tue 04:48:58 PM 39.5594 -77.3358 247° West 432 497 22,000  Level Washington Center
Tue 04:49:58 PM 39.5094 -77.4744 245° Southwest 432 497 22,000  Level Washington Center
Tue 04:50:58 PM 39.4653 -77.6158 248° West 432 497 22,000  Level Washington Center
Tue 04:51:58 PM 39.4192 -77.7542 247° West 432 497 22,000  Level Washington Center
Tue 04:52:58 PM 39.3731 -77.8897 246° West 432 497 22,000  Level Washington Center
Tue 04:53:58 PM 39.3228 -78.0114 242° Southwest 427 491 22,000  Level Washington Center
Tue 04:54:58 PM 39.2697 -78.1464 243° Southwest 427 491 22,000  Level Washington Center
Tue 04:55:58 PM 39.2128 -78.2839 242° Southwest 422 486 22,000  Level Washington Center
Tue 04:56:58 PM 39.1800 -78.4300 254° West 422 486 22,000  Level Washington Center
Tue 04:57:58 PM 39.1514 -78.5786 256° West 427 491 22,000  Level Washington Center
Tue 04:58:58 PM 39.1206 -78.7325 256° West 437 503 22,000  Level Washington Center
Tue 04:59:58 PM 39.0894 -78.8811 255° West 437 503 22,000  Level Washington Center
Tue 05:00:58 PM 39.0558 -79.0344 254° West 437 503 22,000  Level Washington Center
Tue 05:01:58 PM 39.0244 -79.1853 255° West 442 509 22,000  Level Washington Center
Tue 05:02:58 PM 38.9947 -79.3389 256° West 442 509 22,000  Level Washington Center
Tue 05:03:58 PM 38.9628 -79.4894 255° West 447 514 22,000  Level Washington Center
Tue 05:04:58 PM 38.9286 -79.6425 254° West 452 520 22,000  Level Washington Center
Tue 05:05:58 PM 38.8964 -79.7900 254° West 447 514 22,000  Level Washington Center
Tue 05:06:58 PM 38.8639 -79.9403 255° West 447 514 22,000  Level Washington Center
Tue 05:09:10 PM 38.8164 -80.2803 260° West 431 496 22,000  Level Indianapolis Center
Tue 05:10:12 PM 38.8111 -80.4331 268° West 429 494 22,000  Level Indianapolis Center
Tue 05:11:14 PM 38.7989 -80.5836 264° West 429 494 22,000  Level Indianapolis Center
Tue 05:12:16 PM 38.7778 -80.7353 260° West 431 496 22,000  Level Indianapolis Center
Tue 05:13:18 PM 38.7575 -80.8869 260° West 432 497 22,000  Level Indianapolis Center
Tue 05:14:20 PM 38.7361 -81.0383 260° West 432 497 22,000  Level Indianapolis Center
Tue 05:15:22 PM 38.7106 -81.2169 260° West 428 493 22,000 -387 Level Indianapolis Center
Tue 05:16:24 PM 38.6897 -81.3611 260° West 414 476 21,200 -919 Descending Indianapolis Center
Tue 05:17:26 PM 38.6683 -81.5008 259° West 417 480 20,100 -581 Descending Indianapolis Center
Tue 05:18:28 PM 38.6461 -81.6608 260° West 406 467 20,000 -48 Descending Indianapolis Center
Tue 05:19:30 PM 38.6261 -81.8000 260° West 399 459 20,000  Level Indianapolis Center
Tue 05:20:32 PM 38.6050 -81.9408 259° West 402 463 20,000  Level Indianapolis Center
Tue 05:21:34 PM 38.5839 -82.0819 259° West 403 464 20,000  Level Indianapolis Center
Tue 05:22:36 PM 38.5631 -82.2186 259° West 393 452 20,000  Level Indianapolis Center
Tue 05:23:38 PM 38.5425 -82.3539 259° West 387 445 20,000  Level Indianapolis Center
Tue 05:24:40 PM 38.5175 -82.5161 259° West 391 450 20,000  Level Indianapolis Center
Tue 05:25:42 PM 38.4978 -82.6531 260° West 393 452 20,000 -581 Level Indianapolis Center
Tue 05:26:44 PM 38.5114 -82.7903 277° West 389 448 18,800 -1,258 Descending Indianapolis Center
Tue 05:27:46 PM 38.5242 -82.9206 277° West 372 428 17,400 -1,403 Descending Indianapolis Center
Tue 05:28:48 PM 38.5356 -83.0425 277° West 352 405 15,900 -1,403 Descending Indianapolis Center
Tue 05:29:50 PM 38.5472 -83.1711 277° West 360 414 14,500 -1,258 Descending Indianapolis Center
Tue 05:30:52 PM 38.5614 -83.3203 277° West 362 417 13,300 -1,258 Descending Indianapolis Center
Tue 05:31:54 PM 38.5719 -83.4336 277° West 330 380 11,900 -1,161 Descending Indianapolis Center
Tue 05:32:56 PM 38.5811 -83.5461 276° West 321 369 10,900 -871 Descending Indianapolis Center
Tue 05:33:58 PM 38.5933 -83.6656 277° West 335 386 10,100 -387 Descending Indianapolis Center
Tue 05:35:00 PM 38.6028 -83.7842 276° West 336 387 10,100 -48 Level Indianapolis Center
Tue 05:36:02 PM 38.6156 -83.9208 277° West 332 382 10,000 -48 Descending Indianapolis Center
Tue 05:37:04 PM 38.6608 -84.0136 302° West 344 396 10,000  Level Indianapolis Center
Tue 05:38:06 PM 38.7147 -84.1150 304° West 341 392 10,000  Level Indianapolis Center
Tue 05:39:08 PM 38.7672 -84.2169 303° West 340 391 10,000  Level Indianapolis Center
Tue 05:40:10 PM 38.8272 -84.3350 303° West 335 386 10,000  Level Indianapolis Center
Tue 05:41:12 PM 38.8783 -84.4319 304° West 323 372 10,000 -495 Level Indianapolis Center
Tue 05:41:47 PM 38.9000 -84.4833 298° West 254 292 9,200 -758 Descending Cincinnati TRACON
Tue 05:42:47 PM 38.9667 -84.5333 330° Northwest 288 331 8,800 -1,000 Descending Cincinnati TRACON
Tue 05:43:35 PM 39.0167 -84.5333 360° North 286 329 7,400 -1,706 Descending Cincinnati TRACON
Tue 05:44:36 PM 39.1000 -84.5333 360° North 278 320 5,700 -1,543 Descending Cincinnati TRACON
Tue 05:45:20 PM 39.1475 -84.5406 353° North 280 322 4,700 -1,189 Descending Indianapolis Center
Tue 05:46:22 PM 39.1986 -84.5808 329° Northwest 258 297 3,600 -785 Descending Indianapolis Center
Tue 05:47:30 PM 39.2000 -84.6667 271° West 179 206 3,000 -529 Descending Cincinnati TRACON

Login

Don't have an account? Register now (free) for customized features, flight alerts, and more!